createdAt,value
2023-03-31T00:01:35.300Z,3.30
2023-03-31T00:04:05.623Z,3.30
2023-03-31T00:06:38.330Z,3.20
2023-03-31T00:09:09.587Z,3.20
2023-03-31T00:11:39.995Z,3.20
2023-03-31T00:14:11.093Z,3.30
2023-03-31T00:16:40.696Z,3.30
2023-03-31T00:19:18.429Z,3.20
2023-03-31T00:21:47.895Z,3.20
2023-03-31T00:24:17.504Z,3.20
2023-03-31T00:26:45.973Z,3.20
2023-03-31T00:29:15.932Z,3.20
2023-03-31T00:31:44.627Z,3.20
2023-03-31T00:34:13.253Z,3.30
2023-03-31T00:36:46.049Z,3.30
2023-03-31T00:39:16.301Z,3.30
2023-03-31T00:41:45.362Z,3.30
2023-03-31T00:44:23.078Z,3.30
2023-03-31T00:46:56.573Z,3.30
2023-03-31T00:49:30.888Z,3.30
2023-03-31T00:52:03.708Z,3.30
2023-03-31T00:54:34.092Z,3.30
2023-03-31T00:57:03.810Z,3.30
2023-03-31T00:59:35.530Z,3.30
2023-03-31T01:02:05.159Z,3.30
2023-03-31T01:04:36.610Z,3.40
2023-03-31T01:07:12.614Z,3.30
2023-03-31T01:09:42.201Z,3.30
2023-03-31T01:12:12.423Z,3.40
2023-03-31T01:14:42.482Z,3.30
2023-03-31T01:17:11.434Z,3.30
2023-03-31T01:19:58.942Z,3.30
2023-03-31T01:22:46.300Z,3.40
2023-03-31T01:26:01.949Z,3.40
2023-03-31T01:28:39.921Z,3.30
2023-03-31T01:31:45.545Z,3.40
2023-03-31T01:35:01.165Z,3.40
2023-03-31T01:37:47.678Z,3.40
2023-03-31T01:40:34.235Z,3.40
2023-03-31T01:43:11.476Z,3.40
2023-03-31T01:45:51.627Z,3.40
2023-03-31T01:48:25.417Z,3.40
2023-03-31T01:50:58.445Z,3.40
2023-03-31T01:53:34.796Z,3.40
2023-03-31T01:56:12.109Z,3.40
2023-03-31T01:58:44.168Z,3.40
2023-03-31T02:01:19.939Z,3.40
2023-03-31T02:03:54.530Z,3.40
2023-03-31T02:06:25.855Z,3.40
2023-03-31T02:09:01.698Z,3.40
2023-03-31T02:11:34.684Z,3.40
2023-03-31T02:14:06.019Z,3.40
2023-03-31T02:16:42.068Z,3.30
2023-03-31T02:19:14.131Z,3.40
2023-03-31T02:21:43.378Z,3.40
2023-03-31T02:24:14.101Z,3.40
2023-03-31T02:26:49.997Z,3.40
2023-03-31T02:29:18.904Z,3.40
2023-03-31T02:31:50.825Z,3.40
2023-03-31T02:34:20.009Z,3.40
2023-03-31T02:36:49.970Z,3.40
2023-03-31T02:39:21.376Z,3.40
2023-03-31T02:41:51.658Z,3.40
2023-03-31T02:44:22.695Z,3.50
2023-03-31T02:46:54.817Z,3.50
2023-03-31T02:49:24.082Z,3.50
2023-03-31T02:52:14.490Z,3.50
2023-03-31T02:55:04.286Z,3.50
2023-03-31T02:58:18.383Z,3.40
2023-03-31T03:01:09.066Z,3.50
2023-03-31T03:03:46.949Z,3.50
2023-03-31T03:06:37.700Z,3.50
2023-03-31T03:09:33.258Z,3.50
2023-03-31T03:12:12.261Z,3.50
2023-03-31T03:14:48.743Z,3.50
2023-03-31T03:17:23.080Z,3.50
2023-03-31T03:19:57.100Z,3.50
2023-03-31T03:22:25.748Z,3.60
2023-03-31T03:24:54.511Z,3.60
2023-03-31T03:27:24.003Z,3.60
2023-03-31T03:29:54.014Z,3.60
2023-03-31T03:32:22.574Z,3.60
2023-03-31T03:34:51.263Z,3.60
2023-03-31T03:37:19.847Z,3.60
2023-03-31T03:39:48.383Z,3.60
2023-03-31T03:42:17.010Z,3.60
2023-03-31T03:44:45.507Z,3.60
2023-03-31T03:47:15.745Z,3.60
2023-03-31T03:49:44.379Z,3.50
2023-03-31T03:52:12.947Z,3.60
2023-03-31T03:54:41.553Z,3.60
2023-03-31T03:57:10.340Z,3.50
2023-03-31T03:59:38.946Z,3.50
2023-03-31T04:02:07.499Z,3.50
2023-03-31T04:04:37.604Z,3.50
2023-03-31T04:07:06.521Z,3.50
2023-03-31T04:09:35.010Z,3.50
2023-03-31T04:12:03.665Z,3.50
2023-03-31T04:14:32.137Z,3.50
2023-03-31T04:17:00.769Z,3.50
2023-03-31T04:19:29.250Z,3.50
2023-03-31T04:22:03.013Z,3.50
2023-03-31T04:24:33.171Z,3.50
2023-03-31T04:27:03.283Z,3.50
2023-03-31T04:29:33.849Z,3.50
2023-03-31T04:32:03.261Z,3.60
2023-03-31T04:34:36.068Z,3.60
2023-03-31T04:37:06.271Z,3.60
2023-03-31T04:39:34.842Z,3.60
2023-03-31T04:42:03.634Z,3.60
2023-03-31T04:44:33.029Z,3.60
2023-03-31T04:47:03.244Z,3.60
2023-03-31T04:49:33.784Z,3.60
2023-03-31T04:52:03.322Z,3.60
2023-03-31T04:54:33.277Z,3.60
2023-03-31T04:57:02.089Z,3.60
2023-03-31T04:59:30.742Z,3.60
2023-03-31T05:01:59.528Z,3.50
2023-03-31T05:04:28.178Z,3.60
2023-03-31T05:06:56.742Z,3.60
2023-03-31T05:09:25.481Z,3.60
2023-03-31T05:11:55.757Z,3.60
2023-03-31T05:14:24.475Z,3.60
2023-03-31T05:16:52.965Z,3.60
2023-03-31T05:19:21.483Z,3.60
2023-03-31T05:21:50.350Z,3.60
2023-03-31T05:24:18.905Z,3.60
2023-03-31T05:26:52.901Z,3.60
2023-03-31T05:29:23.586Z,3.60
2023-03-31T05:31:54.041Z,3.60
2023-03-31T05:34:22.724Z,3.70
2023-03-31T05:36:54.049Z,3.70
2023-03-31T05:39:22.703Z,3.70
2023-03-31T05:41:51.223Z,3.70
2023-03-31T05:44:20.915Z,3.70
2023-03-31T05:46:50.927Z,3.70
2023-03-31T05:49:19.851Z,3.80
2023-03-31T05:51:49.097Z,3.80
2023-03-31T05:54:17.644Z,3.80
2023-03-31T05:56:46.237Z,3.80
2023-03-31T05:59:15.258Z,3.90
2023-03-31T06:01:44.136Z,3.90
2023-03-31T06:04:14.205Z,3.90
2023-03-31T06:06:43.096Z,3.90
2023-03-31T06:09:12.319Z,3.90
2023-03-31T06:11:41.112Z,3.90
2023-03-31T06:14:09.652Z,3.90
2023-03-31T06:16:38.184Z,3.90
2023-03-31T06:19:06.718Z,3.90
2023-03-31T06:21:36.732Z,3.90
2023-03-31T06:24:05.475Z,3.90
2023-03-31T06:26:34.009Z,3.90
2023-03-31T06:29:02.744Z,3.90
2023-03-31T06:31:31.284Z,3.90
2023-03-31T06:34:00.140Z,3.90
2023-03-31T06:36:28.687Z,4.00
2023-03-31T06:38:59.517Z,4.00
2023-03-31T06:41:28.152Z,4.00
2023-03-31T06:43:56.614Z,4.00
2023-03-31T06:46:25.176Z,4.00
2023-03-31T06:48:54.485Z,4.10
2023-03-31T06:51:23.036Z,4.10
2023-03-31T06:53:51.529Z,4.20
2023-03-31T06:56:22.162Z,4.20
2023-03-31T06:58:50.780Z,4.20
2023-03-31T07:01:19.310Z,4.20
2023-03-31T07:03:48.180Z,4.20
2023-03-31T07:06:16.975Z,4.20
2023-03-31T07:08:46.115Z,4.30
2023-03-31T07:11:14.764Z,4.30
2023-03-31T07:13:44.803Z,4.30
2023-03-31T07:16:14.377Z,4.30
2023-03-31T07:18:45.896Z,4.30
2023-03-31T07:21:21.695Z,4.30
2023-03-31T07:23:59.238Z,4.30
2023-03-31T07:26:28.578Z,4.30
2023-03-31T07:28:59.497Z,4.30
2023-03-31T07:31:28.917Z,4.30
2023-03-31T07:34:03.277Z,4.30
2023-03-31T07:36:33.282Z,4.30
2023-03-31T07:39:09.177Z,4.30
2023-03-31T07:41:38.189Z,4.40
2023-03-31T07:44:08.769Z,4.40
2023-03-31T07:46:41.749Z,4.40
2023-03-31T07:49:11.577Z,4.40
2023-03-31T07:51:40.408Z,4.50
2023-03-31T07:54:09.512Z,4.60
2023-03-31T07:56:38.313Z,4.60
2023-03-31T07:59:08.763Z,4.70
2023-03-31T08:01:40.420Z,4.80
2023-03-31T08:04:12.451Z,4.80
2023-03-31T08:06:46.740Z,4.80
2023-03-31T08:09:16.545Z,4.80
2023-03-31T08:11:46.889Z,4.90
2023-03-31T08:14:27.247Z,4.90
2023-03-31T08:17:05.853Z,4.90
2023-03-31T08:19:35.783Z,4.90
2023-03-31T08:22:06.466Z,5.00
2023-03-31T08:24:40.607Z,5.00
2023-03-31T08:27:13.139Z,5.10
2023-03-31T08:29:43.740Z,5.20
2023-03-31T08:32:12.840Z,5.20
2023-03-31T08:37:12.089Z,5.30
2023-03-31T08:39:41.350Z,5.30
2023-03-31T08:42:16.712Z,5.30
2023-03-31T08:44:54.746Z,5.30
2023-03-31T08:47:31.058Z,5.20
2023-03-31T08:50:04.513Z,5.30
2023-03-31T08:52:37.285Z,5.30
2023-03-31T08:55:09.990Z,5.30
2023-03-31T08:57:45.603Z,5.30
2023-03-31T09:00:19.972Z,5.30
2023-03-31T09:02:54.060Z,5.30
2023-03-31T09:05:59.564Z,5.30
2023-03-31T09:08:38.523Z,5.30
2023-03-31T09:11:16.571Z,5.30
2023-03-31T09:14:17.916Z,5.30
2023-03-31T09:16:55.089Z,5.40
2023-03-31T09:19:33.322Z,5.30
2023-03-31T09:22:02.856Z,5.40
2023-03-31T09:24:34.079Z,5.30
2023-03-31T09:27:04.856Z,5.30
2023-03-31T09:29:42.447Z,5.30
2023-03-31T09:32:17.160Z,5.30
2023-03-31T09:34:47.334Z,5.30
2023-03-31T09:37:16.062Z,5.40
2023-03-31T09:39:45.063Z,5.40
2023-03-31T09:42:15.324Z,5.40
2023-03-31T09:44:47.037Z,5.50
2023-03-31T09:47:21.128Z,5.50
2023-03-31T09:49:53.567Z,5.50
2023-03-31T09:52:29.607Z,5.60
2023-03-31T09:55:02.370Z,5.50
2023-03-31T09:57:34.099Z,5.50
2023-03-31T10:00:16.590Z,5.50
2023-03-31T10:02:51.129Z,5.60
2023-03-31T10:05:30.353Z,5.60
2023-03-31T10:08:25.037Z,5.60
2023-03-31T10:10:55.606Z,5.70
2023-03-31T10:13:27.213Z,5.70
2023-03-31T10:15:57.385Z,5.70
2023-03-31T10:18:35.732Z,5.80
2023-03-31T10:21:08.050Z,5.80
2023-03-31T10:23:37.814Z,5.80
2023-03-31T10:26:06.903Z,5.80
2023-03-31T10:28:37.507Z,5.80
2023-03-31T10:31:08.763Z,5.80
2023-03-31T10:33:45.221Z,5.80
2023-03-31T10:36:22.696Z,5.80
2023-03-31T10:38:53.546Z,5.90
2023-03-31T10:41:25.149Z,5.90
2023-03-31T10:43:56.136Z,5.90
2023-03-31T10:46:42.300Z,5.90
2023-03-31T10:49:25.443Z,5.90
2023-03-31T10:51:55.131Z,5.90
2023-03-31T10:54:23.660Z,6.00
2023-03-31T10:56:54.434Z,6.00
2023-03-31T10:59:39.652Z,6.00
2023-03-31T11:02:39.264Z,6.10
2023-03-31T11:05:15.446Z,6.10
2023-03-31T11:07:56.618Z,6.10
2023-03-31T11:10:42.198Z,6.10
2023-03-31T11:13:18.670Z,6.10
2023-03-31T11:15:55.841Z,6.10
2023-03-31T11:18:49.203Z,6.10
2023-03-31T11:21:29.997Z,6.20
2023-03-31T11:24:08.506Z,6.20
2023-03-31T11:26:44.709Z,6.20
2023-03-31T11:29:31.345Z,6.30
2023-03-31T11:32:16.310Z,6.30
2023-03-31T11:34:57.379Z,6.30
2023-03-31T11:37:57.548Z,6.30
2023-03-31T11:40:44.758Z,6.30
2023-03-31T11:43:21.281Z,6.30
2023-03-31T11:45:54.820Z,6.30
2023-03-31T11:48:32.595Z,6.30
2023-03-31T11:51:04.774Z,6.40
2023-03-31T11:53:38.037Z,6.40
2023-03-31T11:56:09.515Z,6.40
2023-03-31T11:58:41.197Z,6.40
2023-03-31T12:01:19.432Z,6.60
2023-03-31T12:03:56.540Z,6.60
2023-03-31T12:06:30.717Z,6.60
2023-03-31T12:09:15.347Z,6.60
2023-03-31T12:11:50.092Z,6.60
2023-03-31T12:14:29.038Z,6.70
2023-03-31T12:17:05.892Z,6.60
2023-03-31T12:19:41.860Z,6.60
2023-03-31T12:22:16.738Z,6.70
2023-03-31T12:24:47.812Z,6.70
2023-03-31T12:27:22.051Z,6.60
2023-03-31T12:29:56.780Z,6.60
2023-03-31T12:32:29.682Z,6.50
2023-03-31T12:35:03.456Z,6.50
2023-03-31T12:38:06.485Z,6.50
2023-03-31T12:40:47.769Z,6.50
2023-03-31T12:43:33.331Z,6.50
2023-03-31T12:46:10.798Z,6.50
2023-03-31T12:49:03.384Z,6.50
2023-03-31T12:52:01.982Z,6.60
2023-03-31T12:55:06.187Z,6.60
2023-03-31T12:57:37.460Z,6.60
2023-03-31T13:00:26.107Z,6.60
2023-03-31T13:03:28.659Z,6.60
2023-03-31T13:05:57.481Z,6.60
2023-03-31T13:08:53.110Z,6.70
2023-03-31T13:11:23.696Z,6.70
2023-03-31T13:14:02.415Z,6.70
2023-03-31T13:16:31.548Z,6.70
2023-03-31T13:19:00.739Z,6.70
2023-03-31T13:21:29.448Z,6.70
2023-03-31T13:24:02.520Z,6.70
2023-03-31T13:26:39.379Z,6.60
2023-03-31T13:29:24.358Z,6.60
2023-03-31T13:32:23.083Z,6.60
2023-03-31T13:35:04.692Z,6.50
2023-03-31T13:38:01.169Z,6.60
2023-03-31T13:40:53.581Z,6.60
2023-03-31T13:43:43.864Z,6.60
2023-03-31T13:46:36.627Z,6.70
2023-03-31T13:49:16.215Z,6.70
2023-03-31T13:51:57.116Z,6.70
2023-03-31T13:55:08.168Z,6.70
2023-03-31T13:58:11.442Z,6.60
2023-03-31T14:00:57.393Z,6.60
2023-03-31T14:03:49.654Z,6.60
2023-03-31T14:06:30.264Z,6.50
2023-03-31T14:09:03.618Z,6.40
2023-03-31T14:11:33.289Z,6.30
2023-03-31T14:14:03.801Z,6.20
2023-03-31T14:16:36.651Z,6.20
2023-03-31T14:19:28.724Z,6.00
2023-03-31T14:22:06.246Z,5.90
2023-03-31T14:24:39.036Z,5.90
2023-03-31T14:27:18.702Z,5.80
2023-03-31T14:29:58.086Z,5.60
2023-03-31T14:32:33.344Z,5.60
2023-03-31T14:35:20.237Z,5.50
2023-03-31T14:37:49.696Z,5.40
2023-03-31T14:40:20.287Z,5.40
2023-03-31T14:42:50.884Z,5.40
2023-03-31T14:45:22.114Z,5.40
2023-03-31T14:47:58.423Z,5.40
2023-03-31T14:50:35.081Z,5.40
2023-03-31T14:53:04.963Z,5.30
2023-03-31T14:55:54.201Z,5.30
2023-03-31T14:58:28.050Z,5.30
2023-03-31T15:00:56.959Z,5.20
2023-03-31T15:03:27.886Z,5.20
2023-03-31T15:06:02.417Z,5.10
2023-03-31T15:08:31.767Z,5.10
2023-03-31T15:11:12.431Z,5.10
2023-03-31T15:13:56.789Z,5.10
2023-03-31T15:16:38.093Z,5.10
2023-03-31T15:19:15.238Z,5.00
2023-03-31T15:21:47.183Z,5.00
2023-03-31T15:24:16.448Z,5.00
2023-03-31T15:26:49.826Z,4.90
2023-03-31T15:29:22.132Z,4.90
2023-03-31T15:31:51.184Z,4.80
2023-03-31T15:34:27.305Z,4.80
2023-03-31T15:36:58.882Z,4.80
2023-03-31T15:39:29.821Z,4.80
2023-03-31T15:42:00.102Z,4.80
2023-03-31T15:44:46.969Z,4.70
2023-03-31T15:47:19.112Z,4.70
2023-03-31T15:49:54.204Z,4.70
2023-03-31T15:52:33.304Z,4.70
2023-03-31T15:55:02.013Z,4.70
2023-03-31T15:57:35.895Z,4.70
2023-03-31T16:00:07.916Z,4.70
2023-03-31T16:02:47.049Z,4.60
2023-03-31T16:05:37.130Z,4.60
2023-03-31T16:08:15.142Z,4.60
2023-03-31T16:10:44.136Z,4.60
2023-03-31T16:13:18.076Z,4.60
2023-03-31T16:15:49.077Z,4.50
2023-03-31T16:18:25.511Z,4.50
2023-03-31T16:21:00.113Z,4.50
2023-03-31T16:23:33.954Z,4.50
2023-03-31T16:26:03.195Z,4.50
2023-03-31T16:28:36.408Z,4.50
2023-03-31T16:31:06.210Z,4.50
2023-03-31T16:33:55.139Z,4.50
2023-03-31T16:36:23.779Z,4.40
2023-03-31T16:38:55.650Z,4.40
2023-03-31T16:41:25.107Z,4.30
2023-03-31T16:43:54.291Z,4.30
2023-03-31T16:46:24.070Z,4.40
2023-03-31T16:48:53.347Z,4.40
2023-03-31T16:51:23.427Z,4.40
2023-03-31T16:53:52.046Z,4.40
2023-03-31T16:56:22.077Z,4.40
2023-03-31T16:58:51.379Z,4.40
2023-03-31T17:01:20.110Z,4.40
2023-03-31T17:03:49.843Z,4.40
2023-03-31T17:06:18.850Z,4.40
2023-03-31T17:08:47.595Z,4.40
2023-03-31T17:11:16.283Z,4.40
2023-03-31T17:13:46.916Z,4.30
2023-03-31T17:16:19.157Z,4.30
2023-03-31T17:18:53.138Z,4.40
2023-03-31T17:21:22.250Z,4.30
2023-03-31T17:23:52.038Z,4.30
2023-03-31T17:26:20.253Z,4.40
2023-03-31T17:28:50.754Z,4.30
2023-03-31T17:31:21.588Z,4.30
2023-03-31T17:33:50.568Z,4.30
2023-03-31T17:36:19.324Z,4.30
2023-03-31T17:38:48.007Z,4.30
2023-03-31T17:41:17.910Z,4.30
2023-03-31T17:43:47.317Z,4.30
2023-03-31T17:46:19.013Z,4.30
2023-03-31T17:48:48.623Z,4.30
2023-03-31T17:51:23.227Z,4.30
2023-03-31T17:53:52.245Z,4.20
2023-03-31T17:56:20.826Z,4.30
2023-03-31T17:58:49.604Z,4.30
2023-03-31T18:01:19.645Z,4.30
2023-03-31T18:03:48.356Z,4.30
2023-03-31T18:06:17.966Z,4.30
2023-03-31T18:08:46.374Z,4.30
2023-03-31T18:11:15.777Z,4.30
2023-03-31T18:13:44.880Z,4.30
2023-03-31T18:16:14.160Z,4.30
2023-03-31T18:18:45.641Z,4.30
2023-03-31T18:21:15.237Z,4.30
2023-03-31T18:23:43.625Z,4.30
2023-03-31T18:26:14.284Z,4.30
2023-03-31T18:28:43.206Z,4.30
2023-03-31T18:31:13.287Z,4.40
2023-03-31T18:33:42.894Z,4.40
2023-03-31T18:36:18.087Z,4.40
2023-03-31T18:38:47.894Z,4.40
2023-03-31T18:41:19.412Z,4.40
2023-03-31T18:43:50.803Z,4.40
2023-03-31T18:46:19.522Z,4.40
2023-03-31T18:48:48.232Z,4.40
2023-03-31T18:51:18.456Z,4.50
2023-03-31T18:53:47.026Z,4.50
2023-03-31T18:56:15.541Z,4.50
2023-03-31T18:58:44.788Z,4.50
2023-03-31T19:01:14.409Z,4.50
2023-03-31T19:03:44.524Z,4.50
2023-03-31T19:06:13.171Z,4.50
2023-03-31T19:08:43.133Z,4.50
2023-03-31T19:11:13.764Z,4.60
2023-03-31T19:13:43.505Z,4.50
2023-03-31T19:16:12.149Z,4.60
2023-03-31T19:18:41.134Z,4.60
2023-03-31T19:21:09.765Z,4.60
2023-03-31T19:23:38.482Z,4.60
2023-03-31T19:26:09.228Z,4.60
2023-03-31T19:28:37.963Z,4.60
2023-03-31T19:31:06.774Z,4.60
2023-03-31T19:33:35.424Z,4.60
2023-03-31T19:36:04.202Z,4.60
2023-03-31T19:38:34.926Z,4.60
2023-03-31T19:41:04.176Z,4.60
2023-03-31T19:43:34.508Z,4.60
2023-03-31T19:46:05.254Z,4.60
2023-03-31T19:48:34.408Z,4.60
2023-03-31T19:51:06.034Z,4.60
2023-03-31T19:53:34.819Z,4.50
2023-03-31T19:56:08.084Z,4.50
2023-03-31T19:58:38.782Z,4.50
2023-03-31T20:01:09.960Z,4.50
2023-03-31T20:03:38.786Z,4.50
2023-03-31T20:06:09.309Z,4.50
2023-03-31T20:08:39.568Z,4.50
2023-03-31T20:11:11.316Z,4.40
2023-03-31T20:13:42.200Z,4.40
2023-03-31T20:16:12.930Z,4.40
2023-03-31T20:18:43.665Z,4.30
2023-03-31T20:21:14.751Z,4.30
2023-03-31T20:23:44.551Z,4.30
2023-03-31T20:26:15.004Z,4.30
2023-03-31T20:28:46.743Z,4.20
2023-03-31T20:31:18.881Z,4.20
2023-03-31T20:33:48.111Z,4.20
2023-03-31T20:36:19.063Z,4.10
2023-03-31T20:38:51.467Z,4.10
2023-03-31T20:41:22.000Z,4.10
2023-03-31T20:43:52.489Z,4.10
2023-03-31T20:46:22.463Z,4.00
2023-03-31T20:48:53.301Z,4.00
2023-03-31T20:51:23.375Z,4.00
2023-03-31T20:53:53.532Z,4.00
2023-03-31T20:56:23.729Z,4.00
2023-03-31T20:58:55.213Z,4.00
2023-03-31T21:01:23.976Z,4.00
2023-03-31T21:03:53.041Z,4.00
2023-03-31T21:06:22.000Z,4.00
2023-03-31T21:08:54.097Z,4.00
2023-03-31T21:11:24.277Z,4.00
2023-03-31T21:13:54.470Z,4.00
2023-03-31T21:16:23.985Z,3.90
2023-03-31T21:18:55.073Z,3.90
2023-03-31T21:21:25.063Z,3.90
2023-03-31T21:23:53.821Z,3.90
2023-03-31T21:26:23.188Z,3.90
2023-03-31T21:28:54.961Z,3.80
2023-03-31T21:31:25.053Z,3.80
2023-03-31T21:33:56.739Z,3.80
2023-03-31T21:36:26.941Z,3.80
2023-03-31T21:38:57.549Z,3.70
2023-03-31T21:41:28.403Z,3.70
2023-03-31T21:44:00.461Z,3.70
2023-03-31T21:46:31.885Z,3.70
2023-03-31T21:49:01.235Z,3.70
2023-03-31T21:51:30.000Z,3.70
2023-03-31T21:53:58.770Z,3.80
2023-03-31T21:56:32.152Z,3.80
2023-03-31T21:59:04.455Z,3.80
2023-03-31T22:01:33.962Z,3.80
2023-03-31T22:04:02.681Z,3.80
2023-03-31T22:06:31.784Z,3.70
2023-03-31T22:09:00.651Z,3.70
2023-03-31T22:11:30.352Z,3.70
2023-03-31T22:13:59.005Z,3.70
2023-03-31T22:16:28.990Z,3.70
2023-03-31T22:18:57.758Z,3.70
2023-03-31T22:21:43.623Z,3.80
2023-03-31T22:24:13.679Z,3.70
2023-03-31T22:26:42.226Z,3.70
2023-03-31T22:29:15.810Z,3.70
2023-03-31T22:31:46.168Z,3.70
2023-03-31T22:34:15.654Z,3.70
2023-03-31T22:36:44.225Z,3.70
2023-03-31T22:39:12.852Z,3.70
2023-03-31T22:41:42.128Z,3.70
2023-03-31T22:44:11.182Z,3.60
2023-03-31T22:46:39.979Z,3.70
2023-03-31T22:49:10.857Z,3.60
2023-03-31T22:51:40.716Z,3.60
2023-03-31T22:54:13.608Z,3.60
2023-03-31T22:56:43.025Z,3.60
2023-03-31T22:59:11.910Z,3.60
2023-03-31T23:01:40.455Z,3.60
2023-03-31T23:04:10.784Z,3.60
2023-03-31T23:06:39.379Z,3.60
2023-03-31T23:09:07.936Z,3.60
2023-03-31T23:11:36.508Z,3.50
2023-03-31T23:14:05.348Z,3.50
2023-03-31T23:16:33.979Z,3.50
2023-03-31T23:19:03.755Z,3.50
2023-03-31T23:21:33.918Z,3.50
2023-03-31T23:24:03.844Z,3.50
2023-03-31T23:26:34.176Z,3.50
2023-03-31T23:29:04.090Z,3.50
2023-03-31T23:31:33.967Z,3.50
2023-03-31T23:34:02.690Z,3.50
2023-03-31T23:36:31.275Z,3.50
2023-03-31T23:39:01.315Z,3.50
2023-03-31T23:41:30.576Z,3.50
2023-03-31T23:43:59.137Z,3.50
2023-03-31T23:46:27.969Z,3.50
2023-03-31T23:48:56.542Z,3.50
2023-03-31T23:51:25.716Z,3.40
2023-03-31T23:53:54.302Z,3.40
2023-03-31T23:56:24.284Z,3.40
2023-03-31T23:58:52.982Z,3.40
